Salem, OR

6:17 AM PDT on April 01, 2015 (GMT -0700)
McNary | Change Station
CLOSE
Current Station
Airport
Location: Salem,
Elevation: 200 ft
Nearby Weather Stations
Active Advisory: Special Statement

Elev 200 ft 44.91 °N, 123.00 °W | Updated 21 minutes ago

Overcast
Overcast
42 °F
Feels Like 39 °F
N
5
Wind Variable Wind from SSE

Today
High -- | Low -- °F
--% Chance of Precip.
Yesterday
High -- | Low -- °F
Precip. -- in
6:52 AM 7:39 PM
Waxing Gibbous, 92% visible
Pressure 30.32 in
Visibility 10.0 miles
Clouds Overcast 7000 ft
Windchill 39 °F
Dew Point 40 °F
Humidity 92%
Rainfall 0.01 in
Snow Depth Not available.
UV 0 out of 12
Pollen 1.80 out of 12
Air Quality Not available.
Flu Activity Regional
METAR KSLE 011256Z AUTO 15004KT 10SM OVC070 06/04 A3031 RMK AO2 SLP265 T00560044

More Conditions Fewer Conditions

Pressure 30.32 in
Visibility 10.0 miles
Clouds Overcast 7000 ft
Windchill 39 °F
Dew Point 40 °F
Humidity 92%
Rainfall 0.01 in
Snow Depth Not available.
UV 0 out of 12
Pollen 1.80 out of 12
Air Quality Not available.
Flu Activity Regional
METAR KSLE 011256Z AUTO 15004KT 10SM OVC070 06/04 A3031 RMK AO2 SLP265 T00560044

More Conditions Fewer Conditions

10-Day Weather Forecast

Almanac

Astronomy

Apr. 01, 2015 Rise Set
Actual Time 6:52 AM PDT 7:39 PM PDT
Civil Twilight 6:23 AM PDT 8:09 PM PDT
Nautical Twilight 5:48 AM PDT 8:44 PM PDT
Astronomical Twilight 5:11 AM PDT 9:21 PM PDT
Moon 5:17 PM PDT 5:33 AM PDT
Length of Visible Light 13h 45m
Length of Day
12h 46m
Tomorrow will be 3m 7s longer.
Waxing Gibbous, 92% of the Moon is Illuminated
Today
Waxing Gibbous
Apr 4
Full
Apr 11
Last Quarter
Apr 18
New
Apr 25
First Quarter

Today's Extremes

State Highs State Lows

Community

WunderPhotos

Upload Photos

1,809,949 photos uploaded!

WunderBlogs® & News

Nearby

Snow Depth

Station Depth Elevation
Little Meadows 1 in 4000 ft
Seine Creek 0 in 2000 ft
Daly Lake 28 in 3600 ft
Peavine Ridge 0 in 3500 ft
Marion Forks 1 in 2600 ft

Earthquake Activity

City Distance Mag. Time & Date
No recent earthquake activity has been reported nearby.
Minimum magnitude displayed is 2.5.

Coastal Water Temperatures

Place Temperature
No Stations Reporting

Nearby Weather Stations